sensor_id;sensor_type;location;lat;lon;timestamp;pressure;altitude;pressure_sealevel;temperature;humidity
57114;BME280;42994;51.606;9.988;2023-04-20T00:01:11;99375.97;;;4.99;100.00
57114;BME280;42994;51.606;9.988;2023-04-20T00:03:38;99371.69;;;4.98;100.00
57114;BME280;42994;51.606;9.988;2023-04-20T00:06:05;99365.13;;;4.93;100.00
57114;BME280;42994;51.606;9.988;2023-04-20T00:08:32;99359.06;;;5.00;100.00
57114;BME280;42994;51.606;9.988;2023-04-20T00:10:59;99359.06;;;5.00;100.00
57114;BME280;42994;51.606;9.988;2023-04-20T00:13:25;99348.63;;;5.17;100.00
57114;BME280;42994;51.606;9.988;2023-04-20T00:15:53;99349.28;;;5.01;100.00
57114;BME280;42994;51.606;9.988;2023-04-20T00:18:20;99349.47;;;4.90;100.00
57114;BME280;42994;51.606;9.988;2023-04-20T00:20:47;99346.63;;;5.01;100.00
57114;BME280;42994;51.606;9.988;2023-04-20T00:23:13;99332.72;;;5.07;100.00
57114;BME280;42994;51.606;9.988;2023-04-20T00:25:40;99336.47;;;5.14;100.00
57114;BME280;42994;51.606;9.988;2023-04-20T00:28:06;99331.78;;;4.80;100.00
57114;BME280;42994;51.606;9.988;2023-04-20T00:30:33;99338.56;;;4.93;100.00
57114;BME280;42994;51.606;9.988;2023-04-20T00:33:01;99325.44;;;4.91;100.00
57114;BME280;42994;51.606;9.988;2023-04-20T00:35:28;99327.00;;;4.84;100.00
57114;BME280;42994;51.606;9.988;2023-04-20T00:37:55;99321.78;;;4.92;100.00
57114;BME280;42994;51.606;9.988;2023-04-20T00:40:24;99321.00;;;5.10;100.00
57114;BME280;42994;51.606;9.988;2023-04-20T00:42:50;99314.84;;;4.81;100.00
57114;BME280;42994;51.606;9.988;2023-04-20T00:45:17;99312.63;;;4.77;100.00
57114;BME280;42994;51.606;9.988;2023-04-20T00:47:46;99307.81;;;4.62;100.00
57114;BME280;42994;51.606;9.988;2023-04-20T00:50:16;99305.22;;;4.71;100.00
57114;BME280;42994;51.606;9.988;2023-04-20T00:52:43;99307.44;;;4.48;100.00
57114;BME280;42994;51.606;9.988;2023-04-20T00:55:10;99296.50;;;4.51;100.00
57114;BME280;42994;51.606;9.988;2023-04-20T00:57:38;99295.16;;;4.74;100.00
57114;BME280;42994;51.606;9.988;2023-04-20T01:00:05;99295.41;;;4.53;100.00
57114;BME280;42994;51.606;9.988;2023-04-20T01:02:32;99296.84;;;4.75;100.00
57114;BME280;42994;51.606;9.988;2023-04-20T01:04:59;99299.34;;;4.77;100.00
57114;BME280;42994;51.606;9.988;2023-04-20T01:07:29;99291.47;;;4.85;100.00
57114;BME280;42994;51.606;9.988;2023-04-20T01:09:56;99292.16;;;4.87;100.00
57114;BME280;42994;51.606;9.988;2023-04-20T01:12:22;99285.63;;;4.81;100.00
57114;BME280;42994;51.606;9.988;2023-04-20T01:14:49;99280.38;;;4.72;100.00
57114;BME280;42994;51.606;9.988;2023-04-20T01:17:17;99281.50;;;4.69;100.00
57114;BME280;42994;51.606;9.988;2023-04-20T01:19:44;99283.75;;;4.64;100.00
57114;BME280;42994;51.606;9.988;2023-04-20T01:22:14;99274.84;;;4.83;100.00
57114;BME280;42994;51.606;9.988;2023-04-20T01:24:43;99273.91;;;4.74;100.00
57114;BME280;42994;51.606;9.988;2023-04-20T01:27:09;99263.28;;;4.74;100.00
57114;BME280;42994;51.606;9.988;2023-04-20T01:29:38;99271.31;;;4.65;100.00
57114;BME280;42994;51.606;9.988;2023-04-20T01:32:05;99263.94;;;4.58;100.00
57114;BME280;42994;51.606;9.988;2023-04-20T01:34:31;99264.50;;;4.52;100.00
57114;BME280;42994;51.606;9.988;2023-04-20T01:36:58;99252.88;;;4.63;100.00
57114;BME280;42994;51.606;9.988;2023-04-20T01:39:26;99254.69;;;4.62;100.00
57114;BME280;42994;51.606;9.988;2023-04-20T01:41:53;99247.47;;;4.55;100.00
57114;BME280;42994;51.606;9.988;2023-04-20T01:44:23;99248.03;;;4.58;100.00
57114;BME280;42994;51.606;9.988;2023-04-20T01:46:49;99247.47;;;4.55;100.00
57114;BME280;42994;51.606;9.988;2023-04-20T01:49:16;99242.84;;;4.57;100.00
57114;BME280;42994;51.606;9.988;2023-04-20T01:51:42;99238.38;;;4.57;100.00
57114;BME280;42994;51.606;9.988;2023-04-20T01:54:09;99223.97;;;4.60;100.00
57114;BME280;42994;51.606;9.988;2023-04-20T01:56:37;99228.00;;;4.64;100.00
57114;BME280;42994;51.606;9.988;2023-04-20T01:59:04;99225.03;;;4.67;100.00
57114;BME280;42994;51.606;9.988;2023-04-20T02:01:32;99226.53;;;4.52;100.00
57114;BME280;42994;51.606;9.988;2023-04-20T02:03:59;99228.09;;;4.45;100.00
57114;BME280;42994;51.606;9.988;2023-04-20T02:06:26;99214.81;;;4.45;100.00
57114;BME280;42994;51.606;9.988;2023-04-20T02:08:52;99216.94;;;4.41;100.00
57114;BME280;42994;51.606;9.988;2023-04-20T02:11:19;99215.72;;;4.35;100.00
57114;BME280;42994;51.606;9.988;2023-04-20T02:13:48;99218.34;;;4.35;100.00
57114;BME280;42994;51.606;9.988;2023-04-20T02:16:16;99221.06;;;4.53;100.00
57114;BME280;42994;51.606;9.988;2023-04-20T02:18:43;99212.84;;;4.47;100.00
57114;BME280;42994;51.606;9.988;2023-04-20T02:21:11;99214.00;;;4.44;100.00
57114;BME280;42994;51.606;9.988;2023-04-20T02:23:38;99211.63;;;4.41;100.00
57114;BME280;42994;51.606;9.988;2023-04-20T02:26:04;99215.00;;;4.61;100.00
57114;BME280;42994;51.606;9.988;2023-04-20T02:28:31;99217.28;;;4.56;100.00
57114;BME280;42994;51.606;9.988;2023-04-20T02:30:59;99217.00;;;4.59;100.00
57114;BME280;42994;51.606;9.988;2023-04-20T02:33:26;99213.94;;;4.54;100.00
57114;BME280;42994;51.606;9.988;2023-04-20T02:35:53;99213.72;;;4.65;100.00
57114;BME280;42994;51.606;9.988;2023-04-20T02:38:19;99213.53;;;4.49;100.00
57114;BME280;42994;51.606;9.988;2023-04-20T02:40:46;99210.19;;;4.47;100.00
57114;BME280;42994;51.606;9.988;2023-04-20T02:43:14;99212.44;;;4.51;100.00
57114;BME280;42994;51.606;9.988;2023-04-20T02:45:41;99208.28;;;4.67;100.00
57114;BME280;42994;51.606;9.988;2023-04-20T02:48:10;99208.91;;;4.51;100.00
57114;BME280;42994;51.606;9.988;2023-04-20T02:50:38;99208.72;;;4.62;100.00
57114;BME280;42994;51.606;9.988;2023-04-20T02:53:13;99211.41;;;4.52;100.00
57114;BME280;42994;51.606;9.988;2023-04-20T02:55:42;99203.03;;;4.57;100.00
57114;BME280;42994;51.606;9.988;2023-04-20T02:58:22;99207.84;;;4.43;100.00
57114;BME280;42994;51.606;9.988;2023-04-20T03:01:08;99206.56;;;4.48;100.00
57114;BME280;42994;51.606;9.988;2023-04-20T03:03:37;99208.09;;;4.50;100.00
57114;BME280;42994;51.606;9.988;2023-04-20T03:06:07;99212.03;;;4.46;100.00
57114;BME280;42994;51.606;9.988;2023-04-20T03:08:36;99208.91;;;4.51;100.00
57114;BME280;42994;51.606;9.988;2023-04-20T03:11:22;99215.06;;;4.51;100.00
57114;BME280;42994;51.606;9.988;2023-04-20T03:13:49;99208.56;;;4.36;100.00
57114;BME280;42994;51.606;9.988;2023-04-20T03:16:16;99206.13;;;4.52;100.00
57114;BME280;42994;51.606;9.988;2023-04-20T03:18:48;99209.22;;;4.48;100.00
57114;BME280;42994;51.606;9.988;2023-04-20T03:21:15;99198.81;;;4.36;100.00
57114;BME280;42994;51.606;9.988;2023-04-20T03:23:42;99207.75;;;4.35;100.00
57114;BME280;42994;51.606;9.988;2023-04-20T03:26:09;99205.91;;;4.36;100.00
57114;BME280;42994;51.606;9.988;2023-04-20T03:29:12;99206.38;;;4.31;100.00
57114;BME280;42994;51.606;9.988;2023-04-20T03:31:39;99202.72;;;4.32;100.00
57114;BME280;42994;51.606;9.988;2023-04-20T03:34:08;99203.94;;;4.38;100.00
57114;BME280;42994;51.606;9.988;2023-04-20T03:36:35;99205.72;;;4.47;100.00
57114;BME280;42994;51.606;9.988;2023-04-20T03:39:02;99205.34;;;4.42;100.00
57114;BME280;42994;51.606;9.988;2023-04-20T03:41:30;99204.50;;;4.41;100.00
57114;BME280;42994;51.606;9.988;2023-04-20T03:43:57;99201.22;;;4.30;100.00
57114;BME280;42994;51.606;9.988;2023-04-20T03:46:24;99200.81;;;4.24;100.00
57114;BME280;42994;51.606;9.988;2023-04-20T03:48:50;99200.66;;;4.26;100.00
57114;BME280;42994;51.606;9.988;2023-04-20T03:51:18;99188.91;;;4.29;100.00
57114;BME280;42994;51.606;9.988;2023-04-20T03:53:45;99203.41;;;4.34;100.00
57114;BME280;42994;51.606;9.988;2023-04-20T03:56:12;99193.25;;;4.30;100.00
57114;BME280;42994;51.606;9.988;2023-04-20T03:58:39;99203.94;;;4.38;100.00
57114;BME280;42994;51.606;9.988;2023-04-20T04:01:12;99199.34;;;4.40;100.00
57114;BME280;42994;51.606;9.988;2023-04-20T04:03:44;99206.19;;;4.42;100.00
57114;BME280;42994;51.606;9.988;2023-04-20T04:06:12;99206.56;;;4.48;100.00
57114;BME280;42994;51.606;9.988;2023-04-20T04:08:41;99195.00;;;4.39;100.00
57114;BME280;42994;51.606;9.988;2023-04-20T04:11:07;99196.59;;;4.32;100.00
57114;BME280;42994;51.606;9.988;2023-04-20T04:13:34;99198.63;;;4.38;100.00
57114;BME280;42994;51.606;9.988;2023-04-20T04:16:03;99205.63;;;4.39;100.00
57114;BME280;42994;51.606;9.988;2023-04-20T04:18:30;99196.94;;;4.47;100.00
57114;BME280;42994;51.606;9.988;2023-04-20T04:20:59;99200.72;;;4.44;100.00
57114;BME280;42994;51.606;9.988;2023-04-20T04:23:26;99200.81;;;4.52;100.00
57114;BME280;42994;51.606;9.988;2023-04-20T04:26:14;99210.31;;;4.55;100.00
57114;BME280;42994;51.606;9.988;2023-04-20T04:28:43;99209.78;;;4.51;100.00
57114;BME280;42994;51.606;9.988;2023-04-20T04:31:15;99206.72;;;4.46;100.00
57114;BME280;42994;51.606;9.988;2023-04-20T04:33:43;99207.25;;;4.50;100.00
57114;BME280;42994;51.606;9.988;2023-04-20T04:36:14;99208.00;;;4.42;100.00
57114;BME280;42994;51.606;9.988;2023-04-20T04:38:42;99209.78;;;4.51;100.00
57114;BME280;42994;51.606;9.988;2023-04-20T04:41:09;99208.81;;;4.42;100.00
57114;BME280;42994;51.606;9.988;2023-04-20T04:43:39;99203.25;;;4.36;100.00
57114;BME280;42994;51.606;9.988;2023-04-20T04:46:16;99209.38;;;4.46;100.00
57114;BME280;42994;51.606;9.988;2023-04-20T04:48:43;99212.09;;;4.36;100.00
57114;BME280;42994;51.606;9.988;2023-04-20T04:51:10;99209.25;;;4.38;100.00
57114;BME280;42994;51.606;9.988;2023-04-20T04:53:37;99209.97;;;4.40;100.00
57114;BME280;42994;51.606;9.988;2023-04-20T04:56:04;99209.56;;;4.35;100.00
57114;BME280;42994;51.606;9.988;2023-04-20T04:58:32;99216.69;;;4.34;100.00
57114;BME280;42994;51.606;9.988;2023-04-20T05:01:00;99210.13;;;4.38;100.00
57114;BME280;42994;51.606;9.988;2023-04-20T05:03:26;99212.63;;;4.40;100.00
57114;BME280;42994;51.606;9.988;2023-04-20T05:05:53;99217.06;;;4.39;100.00
57114;BME280;42994;51.606;9.988;2023-04-20T05:08:21;99226.88;;;4.39;100.00
57114;BME280;42994;51.606;9.988;2023-04-20T05:10:58;99218.75;;;4.40;100.00
57114;BME280;42994;51.606;9.988;2023-04-20T05:13:34;99222.53;;;4.38;100.00
57114;BME280;42994;51.606;9.988;2023-04-20T05:16:03;99227.84;;;4.38;100.00
57114;BME280;42994;51.606;9.988;2023-04-20T05:18:29;99227.84;;;4.38;100.00
57114;BME280;42994;51.606;9.988;2023-04-20T05:20:56;99224.34;;;4.37;100.00
57114;BME280;42994;51.606;9.988;2023-04-20T05:23:23;99223.13;;;4.32;100.00
57114;BME280;42994;51.606;9.988;2023-04-20T05:25:49;99228.34;;;4.23;100.00
57114;BME280;42994;51.606;9.988;2023-04-20T05:28:16;99226.50;;;4.24;100.00
57114;BME280;42994;51.606;9.988;2023-04-20T05:30:43;99229.16;;;4.24;100.00
57114;BME280;42994;51.606;9.988;2023-04-20T05:33:11;99230.00;;;4.24;100.00
57114;BME280;42994;51.606;9.988;2023-04-20T05:35:37;99235.59;;;4.21;100.00
57114;BME280;42994;51.606;9.988;2023-04-20T05:38:05;99227.34;;;4.24;100.00
57114;BME280;42994;51.606;9.988;2023-04-20T05:40:32;99231.53;;;4.27;100.00
57114;BME280;42994;51.606;9.988;2023-04-20T05:42:59;99240.72;;;4.33;100.00
57114;BME280;42994;51.606;9.988;2023-04-20T05:45:26;99244.22;;;4.33;100.00
57114;BME280;42994;51.606;9.988;2023-04-20T05:47:53;99243.94;;;4.36;100.00
57114;BME280;42994;51.606;9.988;2023-04-20T05:50:22;99249.38;;;4.35;100.00
57114;BME280;42994;51.606;9.988;2023-04-20T05:52:49;99256.25;;;4.28;100.00
57114;BME280;42994;51.606;9.988;2023-04-20T05:55:16;99248.16;;;4.29;100.00
57114;BME280;42994;51.606;9.988;2023-04-20T05:57:43;99250.50;;;4.32;100.00
57114;BME280;42994;51.606;9.988;2023-04-20T06:00:12;99253.44;;;4.29;100.00
57114;BME280;42994;51.606;9.988;2023-04-20T06:02:39;99239.38;;;4.19;100.00
57114;BME280;42994;51.606;9.988;2023-04-20T06:05:09;99249.56;;;4.23;100.00
57114;BME280;42994;51.606;9.988;2023-04-20T06:07:38;99237.00;;;4.26;100.00
57114;BME280;42994;51.606;9.988;2023-04-20T06:10:05;99255.09;;;4.30;100.00
57114;BME280;42994;51.606;9.988;2023-04-20T06:12:32;99240.59;;;4.24;100.00
57114;BME280;42994;51.606;9.988;2023-04-20T06:14:59;99251.78;;;4.28;100.00
57114;BME280;42994;51.606;9.988;2023-04-20T06:17:26;99247.97;;;4.31;100.00
57114;BME280;42994;51.606;9.988;2023-04-20T06:19:52;99250.63;;;4.31;100.00
57114;BME280;42994;51.606;9.988;2023-04-20T06:22:19;99249.41;;;4.25;100.00
57114;BME280;42994;51.606;9.988;2023-04-20T06:24:48;99253.44;;;4.29;100.00
57114;BME280;42994;51.606;9.988;2023-04-20T06:27:14;99256.25;;;4.28;100.00
57114;BME280;42994;51.606;9.988;2023-04-20T06:29:41;99261.69;;;4.26;100.00
57114;BME280;42994;51.606;9.988;2023-04-20T06:32:08;99262.94;;;4.32;100.00
57114;BME280;42994;51.606;9.988;2023-04-20T06:34:34;99254.56;;;4.27;100.00
57114;BME280;42994;51.606;9.988;2023-04-20T06:37:01;99263.75;;;4.32;100.00
57114;BME280;42994;51.606;9.988;2023-04-20T06:39:27;99259.31;;;4.33;100.00
57114;BME280;42994;51.606;9.988;2023-04-20T06:41:55;99255.38;;;4.37;100.00
57114;BME280;42994;51.606;9.988;2023-04-20T06:44:23;99259.00;;;4.36;100.00
57114;BME280;42994;51.606;9.988;2023-04-20T06:46:49;99268.66;;;4.37;100.00
57114;BME280;42994;51.606;9.988;2023-04-20T06:49:16;99270.63;;;4.35;100.00
57114;BME280;42994;51.606;9.988;2023-04-20T06:51:43;99266.81;;;4.37;100.00
57114;BME280;42994;51.606;9.988;2023-04-20T06:54:09;99270.47;;;4.36;100.00
57114;BME280;42994;51.606;9.988;2023-04-20T06:56:36;99273.25;;;4.35;100.00
57114;BME280;42994;51.606;9.988;2023-04-20T06:59:04;99271.00;;;4.40;100.00
57114;BME280;42994;51.606;9.988;2023-04-20T07:01:31;99264.44;;;4.34;100.00
57114;BME280;42994;51.606;9.988;2023-04-20T07:03:58;99269.47;;;4.37;100.00
57114;BME280;42994;51.606;9.988;2023-04-20T07:06:25;99269.63;;;4.36;100.00
57114;BME280;42994;51.606;9.988;2023-04-20T07:08:52;99270.16;;;4.39;100.00
57114;BME280;42994;51.606;9.988;2023-04-20T07:11:18;99274.22;;;4.43;100.00
57114;BME280;42994;51.606;9.988;2023-04-20T07:13:45;99265.25;;;4.45;100.00
57114;BME280;42994;51.606;9.988;2023-04-20T07:16:14;99268.31;;;4.50;100.00
57114;BME280;42994;51.606;9.988;2023-04-20T07:18:41;99277.09;;;4.50;100.00
57114;BME280;42994;51.606;9.988;2023-04-20T07:21:07;99271.06;;;4.58;100.00
57114;BME280;42994;51.606;9.988;2023-04-20T07:23:34;99274.84;;;4.55;100.00
57114;BME280;42994;51.606;9.988;2023-04-20T07:26:00;99274.44;;;4.50;100.00
57114;BME280;42994;51.606;9.988;2023-04-20T07:28:27;99272.88;;;4.57;100.00
57114;BME280;42994;51.606;9.988;2023-04-20T07:30:54;99269.94;;;4.60;100.00
57114;BME280;42994;51.606;9.988;2023-04-20T07:33:25;99279.03;;;4.58;100.00
57114;BME280;42994;51.606;9.988;2023-04-20T07:35:54;99278.06;;;4.59;100.00
57114;BME280;42994;51.606;9.988;2023-04-20T07:38:20;99274.56;;;4.58;100.00
57114;BME280;42994;51.606;9.988;2023-04-20T07:40:47;99279.72;;;4.60;100.00
57114;BME280;42994;51.606;9.988;2023-04-20T07:43:14;99284.19;;;4.59;100.00
57114;BME280;42994;51.606;9.988;2023-04-20T07:45:41;99281.25;;;4.62;100.00
57114;BME280;42994;51.606;9.988;2023-04-20T07:48:08;99288.47;;;4.70;100.00
57114;BME280;42994;51.606;9.988;2023-04-20T07:50:37;99283.84;;;4.72;100.00
57114;BME280;42994;51.606;9.988;2023-04-20T07:53:04;99289.56;;;4.77;100.00
57114;BME280;42994;51.606;9.988;2023-04-20T07:55:31;99290.50;;;4.86;100.00
57114;BME280;42994;51.606;9.988;2023-04-20T07:57:58;99300.97;;;4.88;100.00
57114;BME280;42994;51.606;9.988;2023-04-20T08:00:25;99293.69;;;4.90;100.00
57114;BME280;42994;51.606;9.988;2023-04-20T08:02:52;99299.16;;;4.88;100.00
57114;BME280;42994;51.606;9.988;2023-04-20T08:05:19;99297.28;;;4.98;100.00
57114;BME280;42994;51.606;9.988;2023-04-20T08:07:47;99291.50;;;5.03;100.00
57114;BME280;42994;51.606;9.988;2023-04-20T08:10:14;99301.56;;;5.09;100.00
57114;BME280;42994;51.606;9.988;2023-04-20T08:12:41;99295.94;;;5.12;100.00
57114;BME280;42994;51.606;9.988;2023-04-20T08:15:08;99307.03;;;5.08;100.00
57114;BME280;42994;51.606;9.988;2023-04-20T08:17:35;99299.13;;;5.16;100.00
57114;BME280;42994;51.606;9.988;2023-04-20T08:20:02;99303.31;;;5.18;100.00
57114;BME280;42994;51.606;9.988;2023-04-20T08:22:30;99306.94;;;5.17;100.00
57114;BME280;42994;51.606;9.988;2023-04-20T08:24:59;99314.09;;;5.17;100.00
57114;BME280;42994;51.606;9.988;2023-04-20T08:27:25;99313.94;;;5.18;100.00
57114;BME280;42994;51.606;9.988;2023-04-20T08:29:54;99307.34;;;5.23;100.00
57114;BME280;42994;51.606;9.988;2023-04-20T08:32:20;99317.91;;;5.32;100.00
57114;BME280;42994;51.606;9.988;2023-04-20T08:34:49;99305.16;;;5.36;100.00
57114;BME280;42994;51.606;9.988;2023-04-20T08:37:16;99315.69;;;5.46;100.00
57114;BME280;42994;51.606;9.988;2023-04-20T08:39:42;99319.72;;;5.32;100.00
57114;BME280;42994;51.606;9.988;2023-04-20T08:42:11;99318.50;;;5.26;100.00
57114;BME280;42994;51.606;9.988;2023-04-20T08:44:37;99318.44;;;5.36;100.00
57114;BME280;42994;51.606;9.988;2023-04-20T08:47:04;99315.88;;;5.44;100.00
57114;BME280;42994;51.606;9.988;2023-04-20T08:49:31;99316.94;;;5.51;100.00
57114;BME280;42994;51.606;9.988;2023-04-20T08:51:58;99324.53;;;5.46;100.00
57114;BME280;42994;51.606;9.988;2023-04-20T08:54:25;99322.94;;;5.53;100.00
57114;BME280;42994;51.606;9.988;2023-04-20T08:56:52;99323.31;;;5.58;100.00
57114;BME280;42994;51.606;9.988;2023-04-20T08:59:20;99325.50;;;5.63;100.00
57114;BME280;42994;51.606;9.988;2023-04-20T09:01:47;99330.69;;;5.65;100.00
57114;BME280;42994;51.606;9.988;2023-04-20T09:04:15;99332.19;;;5.67;100.00
57114;BME280;42994;51.606;9.988;2023-04-20T09:06:43;99334.16;;;5.65;100.00
57114;BME280;42994;51.606;9.988;2023-04-20T09:09:09;99334.94;;;5.75;100.00
57114;BME280;42994;51.606;9.988;2023-04-20T09:11:36;99328.09;;;6.09;100.00
57114;BME280;42994;51.606;9.988;2023-04-20T09:14:05;99331.03;;;6.06;100.00
57114;BME280;42994;51.606;9.988;2023-04-20T09:16:36;99325.28;;;6.10;100.00
57114;BME280;42994;51.606;9.988;2023-04-20T09:19:03;99329.44;;;6.13;100.00
57114;BME280;42994;51.606;9.988;2023-04-20T09:21:31;99341.28;;;6.19;100.00
57114;BME280;42994;51.606;9.988;2023-04-20T09:23:59;99336.81;;;6.19;100.00
57114;BME280;42994;51.606;9.988;2023-04-20T09:26:26;99330.72;;;6.27;100.00
57114;BME280;42994;51.606;9.988;2023-04-20T09:28:53;99331.44;;;6.37;100.00
57114;BME280;42994;51.606;9.988;2023-04-20T09:31:21;99335.56;;;6.31;100.00
57114;BME280;42994;51.606;9.988;2023-04-20T09:33:59;99334.03;;;6.29;100.00
57114;BME280;42994;51.606;9.988;2023-04-20T09:36:37;99331.91;;;6.32;100.00
57114;BME280;42994;51.606;9.988;2023-04-20T09:39:06;99329.25;;;6.32;100.00
57114;BME280;42994;51.606;9.988;2023-04-20T09:41:34;99322.41;;;6.30;100.00
57114;BME280;42994;51.606;9.988;2023-04-20T09:44:01;99326.13;;;6.37;100.00
57114;BME280;42994;51.606;9.988;2023-04-20T09:46:30;99328.38;;;6.50;100.00
57114;BME280;42994;51.606;9.988;2023-04-20T09:48:59;99327.06;;;6.54;100.00
57114;BME280;42994;51.606;9.988;2023-04-20T09:51:26;99335.03;;;6.54;100.00
57114;BME280;42994;51.606;9.988;2023-04-20T09:53:55;99330.69;;;6.53;100.00
57114;BME280;42994;51.606;9.988;2023-04-20T09:56:22;99333.22;;;6.54;100.00
57114;BME280;42994;51.606;9.988;2023-04-20T09:58:49;99332.53;;;6.52;100.00
57114;BME280;42994;51.606;9.988;2023-04-20T10:01:16;99334.75;;;6.57;100.00
57114;BME280;42994;51.606;9.988;2023-04-20T10:03:44;99332.25;;;6.64;100.00
57114;BME280;42994;51.606;9.988;2023-04-20T10:06:20;99333.09;;;6.64;100.00
57114;BME280;42994;51.606;9.988;2023-04-20T10:08:47;99336.03;;;6.53;100.00
57114;BME280;42994;51.606;9.988;2023-04-20T10:11:26;99335.06;;;6.62;100.00
57114;BME280;42994;51.606;9.988;2023-04-20T10:13:53;99334.03;;;6.55;100.00
57114;BME280;42994;51.606;9.988;2023-04-20T10:16:21;99326.63;;;6.67;100.00
57114;BME280;42994;51.606;9.988;2023-04-20T10:18:58;99336.84;;;6.80;100.00
57114;BME280;42994;51.606;9.988;2023-04-20T10:21:28;99322.50;;;6.81;100.00
57114;BME280;42994;51.606;9.988;2023-04-20T10:23:57;99328.91;;;6.96;100.00
57114;BME280;42994;51.606;9.988;2023-04-20T10:26:34;99342.91;;;6.98;100.00
57114;BME280;42994;51.606;9.988;2023-04-20T10:29:02;99339.25;;;6.99;100.00
57114;BME280;42994;51.606;9.988;2023-04-20T10:31:34;99337.59;;;6.98;100.00
57114;BME280;42994;51.606;9.988;2023-04-20T10:34:09;99338.13;;;7.10;100.00
57114;BME280;42994;51.606;9.988;2023-04-20T10:36:37;99334.59;;;7.01;100.00
57114;BME280;42994;51.606;9.988;2023-04-20T10:39:14;99328.16;;;7.20;100.00
57114;BME280;42994;51.606;9.988;2023-04-20T10:41:53;99324.19;;;7.32;100.00
57114;BME280;42994;51.606;9.988;2023-04-20T10:44:20;99321.34;;;7.26;100.00
57114;BME280;42994;51.606;9.988;2023-04-20T10:46:50;99318.59;;;7.52;100.00
57114;BME280;42994;51.606;9.988;2023-04-20T10:49:17;99312.25;;;7.78;100.00
57114;BME280;42994;51.606;9.988;2023-04-20T10:51:49;99309.91;;;7.66;100.00
57114;BME280;42994;51.606;9.988;2023-04-20T10:54:16;99310.06;;;7.57;100.00
57114;BME280;42994;51.606;9.988;2023-04-20T10:56:46;99307.06;;;7.68;100.00
57114;BME280;42994;51.606;9.988;2023-04-20T10:59:14;99309.41;;;7.71;100.00
57114;BME280;42994;51.606;9.988;2023-04-20T11:01:41;99307.41;;;7.57;100.00
57114;BME280;42994;51.606;9.988;2023-04-20T11:04:09;99305.44;;;7.83;100.00
57114;BME280;42994;51.606;9.988;2023-04-20T11:06:38;99306.22;;;7.76;100.00
57114;BME280;42994;51.606;9.988;2023-04-20T11:09:17;99313.09;;;7.78;100.00
57114;BME280;42994;51.606;9.988;2023-04-20T11:11:44;99299.75;;;7.78;100.00
57114;BME280;42994;51.606;9.988;2023-04-20T11:14:12;99303.09;;;8.05;100.00
57114;BME280;42994;51.606;9.988;2023-04-20T11:16:39;99292.56;;;8.20;100.00
57114;BME280;42994;51.606;9.988;2023-04-20T11:19:05;99296.03;;;8.37;100.00
57114;BME280;42994;51.606;9.988;2023-04-20T11:21:36;99286.81;;;8.39;100.00
57114;BME280;42994;51.606;9.988;2023-04-20T11:24:04;99278.00;;;8.31;100.00
57114;BME280;42994;51.606;9.988;2023-04-20T11:26:39;99282.00;;;8.26;100.00
57114;BME280;42994;51.606;9.988;2023-04-20T11:29:06;99287.84;;;8.30;100.00
57114;BME280;42994;51.606;9.988;2023-04-20T11:31:33;99286.53;;;8.26;100.00
57114;BME280;42994;51.606;9.988;2023-04-20T11:34:01;99282.66;;;8.53;100.00
57114;BME280;42994;51.606;9.988;2023-04-20T11:36:28;99285.31;;;8.45;100.00
57114;BME280;42994;51.606;9.988;2023-04-20T11:39:06;99288.00;;;8.53;100.00
57114;BME280;42994;51.606;9.988;2023-04-20T11:41:33;99290.16;;;8.41;100.00
57114;BME280;42994;51.606;9.988;2023-04-20T11:44:01;99292.84;;;8.50;100.00
57114;BME280;42994;51.606;9.988;2023-04-20T11:46:33;99279.13;;;8.61;100.00
57114;BME280;42994;51.606;9.988;2023-04-20T11:49:01;99283.88;;;8.82;100.00
57114;BME280;42994;51.606;9.988;2023-04-20T11:51:28;99276.53;;;9.15;100.00
57114;BME280;42994;51.606;9.988;2023-04-20T11:53:55;99268.53;;;9.07;100.00
57114;BME280;42994;51.606;9.988;2023-04-20T11:56:22;99265.00;;;9.15;100.00
57114;BME280;42994;51.606;9.988;2023-04-20T11:58:49;99268.34;;;9.17;100.00
57114;BME280;42994;51.606;9.988;2023-04-20T12:01:17;99277.34;;;9.16;100.00
57114;BME280;42994;51.606;9.988;2023-04-20T12:03:43;99260.97;;;9.19;100.00
57114;BME280;42994;51.606;9.988;2023-04-20T12:06:10;99261.22;;;9.01;100.00
57114;BME280;42994;51.606;9.988;2023-04-20T12:08:37;99261.63;;;9.21;100.00
57114;BME280;42994;51.606;9.988;2023-04-20T12:11:04;99255.38;;;9.29;100.00
57114;BME280;42994;51.606;9.988;2023-04-20T12:13:30;99256.78;;;9.48;100.00
57114;BME280;42994;51.606;9.988;2023-04-20T12:15:57;99262.28;;;9.69;100.00
57114;BME280;42994;51.606;9.988;2023-04-20T12:18:25;99256.34;;;9.59;100.00
57114;BME280;42994;51.606;9.988;2023-04-20T12:20:52;99259.19;;;9.57;100.00
57114;BME280;42994;51.606;9.988;2023-04-20T12:23:18;99260.50;;;9.61;100.00
57114;BME280;42994;51.606;9.988;2023-04-20T12:25:45;99246.38;;;9.53;100.00
57114;BME280;42994;51.606;9.988;2023-04-20T12:28:12;99243.31;;;9.56;100.00
57114;BME280;42994;51.606;9.988;2023-04-20T12:30:39;99242.19;;;9.73;100.00
57114;BME280;42994;51.606;9.988;2023-04-20T12:33:06;99236.56;;;9.60;100.00
57114;BME280;42994;51.606;9.988;2023-04-20T12:35:34;99244.47;;;9.76;100.00
57114;BME280;42994;51.606;9.988;2023-04-20T12:38:00;99233.63;;;9.55;100.00
57114;BME280;42994;51.606;9.988;2023-04-20T12:40:27;99232.16;;;9.67;100.00
57114;BME280;42994;51.606;9.988;2023-04-20T12:42:54;99229.88;;;9.64;100.00
57114;BME280;42994;51.606;9.988;2023-04-20T12:45:20;99216.13;;;9.67;100.00
57114;BME280;42994;51.606;9.988;2023-04-20T12:47:47;99223.78;;;9.70;100.00
57114;BME280;42994;51.606;9.988;2023-04-20T12:50:14;99229.03;;;9.63;100.00
57114;BME280;42994;51.606;9.988;2023-04-20T12:52:42;99231.44;;;9.58;100.00
57114;BME280;42994;51.606;9.988;2023-04-20T12:55:09;99219.81;;;9.66;100.00
57114;BME280;42994;51.606;9.988;2023-04-20T12:57:36;99217.31;;;9.65;100.00
57114;BME280;42994;51.606;9.988;2023-04-20T13:00:03;99215.69;;;9.78;100.00
57114;BME280;42994;51.606;9.988;2023-04-20T13:02:31;99210.59;;;9.84;100.00
57114;BME280;42994;51.606;9.988;2023-04-20T13:04:57;99213.09;;;9.70;100.00